createdAt,value
2018-01-01T00:00:58.774Z,49.17
2018-01-01T00:03:24.611Z,49.66
2018-01-01T00:05:50.749Z,50.06
2018-01-01T00:08:16.774Z,49.43
2018-01-01T00:10:42.753Z,49.05
2018-01-01T00:13:08.902Z,49.67
2018-01-01T00:15:34.858Z,48.82
2018-01-01T00:18:01.157Z,48.88
2018-01-01T00:20:27.010Z,48.26
2018-01-01T00:22:52.839Z,48.66
2018-01-01T00:25:18.863Z,49.41
2018-01-01T00:27:44.748Z,48.84
2018-01-01T00:30:10.601Z,49.10
2018-01-01T00:32:37.061Z,48.84
2018-01-01T00:35:04.239Z,49.03
2018-01-01T00:37:30.254Z,48.79
2018-01-01T00:39:56.073Z,48.69
2018-01-01T00:42:21.886Z,49.18
2018-01-01T00:44:47.856Z,48.63
2018-01-01T00:47:13.894Z,48.38
2018-01-01T00:49:39.719Z,48.69
2018-01-01T00:52:06.510Z,48.57
2018-01-01T00:54:34.651Z,48.14
2018-01-01T00:57:00.837Z,49.02
2018-01-01T00:59:26.670Z,48.83
2018-01-01T01:01:52.525Z,49.43
2018-01-01T01:04:18.415Z,48.51
2018-01-01T01:06:44.249Z,48.45
2018-01-01T01:09:10.086Z,49.24
2018-01-01T01:11:35.906Z,49.66
2018-01-01T01:14:01.897Z,49.13
2018-01-01T01:16:27.716Z,47.85
2018-01-01T01:18:53.870Z,48.02
2018-01-01T01:21:19.677Z,47.60
2018-01-01T01:23:45.489Z,48.16
2018-01-01T01:26:11.355Z,47.84
2018-01-01T01:28:37.213Z,48.23
2018-01-01T01:31:03.031Z,48.27
2018-01-01T01:33:28.903Z,47.97
2018-01-01T01:35:54.940Z,47.93
2018-01-01T01:38:20.862Z,47.76
2018-01-01T01:40:46.707Z,48.04
2018-01-01T01:43:12.534Z,47.38
2018-01-01T01:45:38.397Z,47.83
2018-01-01T01:48:04.226Z,47.98
2018-01-01T01:50:30.046Z,48.87
2018-01-01T01:52:55.976Z,48.51
2018-01-01T01:55:21.798Z,48.27
2018-01-01T01:57:47.681Z,48.00
2018-01-01T02:00:13.499Z,47.79
2018-01-01T02:02:39.318Z,47.97
2018-01-01T02:05:05.150Z,48.92
2018-01-01T02:07:31.139Z,48.77
2018-01-01T02:09:56.978Z,49.46
2018-01-01T02:12:22.814Z,48.87
2018-01-01T02:14:48.630Z,48.89
2018-01-01T02:17:14.448Z,48.61
2018-01-01T02:19:40.270Z,49.01
2018-01-01T02:22:06.242Z,48.84
2018-01-01T02:24:32.060Z,48.06
2018-01-01T02:26:57.871Z,48.58
2018-01-01T02:29:23.693Z,48.83
2018-01-01T02:31:49.517Z,49.09
2018-01-01T02:34:15.335Z,48.97
2018-01-01T02:36:41.158Z,48.83
2018-01-01T02:39:07.742Z,48.57
2018-01-01T02:41:33.635Z,47.87
2018-01-01T02:43:59.468Z,48.57
2018-01-01T02:46:25.622Z,48.33
2018-01-01T02:48:51.507Z,48.84
2018-01-01T02:51:17.320Z,49.09
2018-01-01T02:53:43.349Z,48.92
2018-01-01T02:56:09.198Z,48.95
2018-01-01T02:58:35.069Z,48.97
2018-01-01T03:01:00.877Z,49.20
2018-01-01T03:03:26.763Z,48.55
2018-01-01T03:05:52.583Z,48.49
2018-01-01T03:08:18.446Z,48.85
2018-01-01T03:10:44.295Z,49.23
2018-01-01T03:13:10.165Z,49.18
2018-01-01T03:15:36.091Z,49.22
2018-01-01T03:18:02.178Z,48.67
2018-01-01T03:20:28.026Z,49.27
2018-01-01T03:22:53.850Z,48.67
2018-01-01T03:25:19.699Z,48.62
2018-01-01T03:27:45.522Z,48.78
2018-01-01T03:30:11.387Z,49.09
2018-01-01T03:32:37.242Z,49.18
2018-01-01T03:35:03.111Z,49.29
2018-01-01T03:37:28.934Z,48.37
2018-01-01T03:39:54.846Z,49.00
2018-01-01T03:42:20.658Z,49.41
2018-01-01T03:44:46.481Z,49.43
2018-01-01T03:47:12.289Z,49.79
2018-01-01T03:49:38.225Z,49.59
2018-01-01T03:52:04.086Z,49.22
2018-01-01T03:54:29.915Z,49.17
2018-01-01T03:56:55.805Z,48.89
2018-01-01T03:59:21.631Z,49.49
2018-01-01T04:01:47.525Z,49.37
2018-01-01T04:04:13.385Z,49.14
2018-01-01T04:06:39.242Z,49.26
2018-01-01T04:09:05.105Z,49.34
2018-01-01T04:11:30.924Z,49.23
2018-01-01T04:13:56.766Z,49.22
2018-01-01T04:16:22.697Z,49.03
2018-01-01T04:18:48.673Z,48.75
2018-01-01T04:21:14.843Z,49.24
2018-01-01T04:23:40.657Z,49.06
2018-01-01T04:26:06.521Z,49.19
2018-01-01T04:28:32.342Z,49.10
2018-01-01T04:30:58.165Z,48.68
2018-01-01T04:33:24.035Z,49.03
2018-01-01T04:35:49.849Z,49.10
2018-01-01T04:38:15.799Z,49.22
2018-01-01T04:40:41.931Z,48.31
2018-01-01T04:43:07.755Z,48.96
2018-01-01T04:45:33.613Z,49.31
2018-01-01T04:47:59.919Z,49.48
2018-01-01T04:50:26.217Z,49.03
2018-01-01T04:52:52.143Z,48.60
2018-01-01T04:55:17.950Z,49.33
2018-01-01T04:57:43.838Z,49.26
2018-01-01T05:00:09.675Z,48.46
2018-01-01T05:02:36.095Z,48.37
2018-01-01T05:05:02.517Z,48.86
2018-01-01T05:07:28.431Z,48.35
2018-01-01T05:09:54.275Z,48.38
2018-01-01T05:12:20.152Z,49.39
2018-01-01T05:14:46.061Z,49.49
2018-01-01T05:17:11.882Z,48.44
2018-01-01T05:19:37.694Z,48.11
2018-01-01T05:22:03.519Z,48.11
2018-01-01T05:24:29.378Z,48.30
2018-01-01T05:26:55.771Z,48.15
2018-01-01T05:29:21.821Z,49.29
2018-01-01T05:31:47.643Z,49.25
2018-01-01T05:34:13.466Z,48.99
2018-01-01T05:36:39.311Z,48.87
2018-01-01T05:39:05.651Z,48.04
2018-01-01T05:41:31.568Z,47.95
2018-01-01T05:43:57.373Z,48.23
2018-01-01T05:46:23.198Z,48.05
2018-01-01T05:48:49.021Z,48.15
2018-01-01T05:51:14.837Z,48.00
2018-01-01T05:53:40.653Z,49.44
2018-01-01T05:56:06.482Z,48.17
2018-01-01T05:58:32.823Z,48.20
2018-01-01T06:00:59.158Z,48.10
2018-01-01T06:03:24.982Z,48.71
2018-01-01T06:05:50.804Z,47.91
2018-01-01T06:08:16.669Z,48.16
2018-01-01T06:10:42.498Z,48.95
2018-01-01T06:13:08.325Z,48.54
2018-01-01T06:15:34.146Z,48.56
2018-01-01T06:17:59.963Z,49.34
2018-01-01T06:20:25.892Z,48.41
2018-01-01T06:22:51.923Z,49.32
2018-01-01T06:25:17.753Z,47.83
2018-01-01T06:27:43.574Z,49.04
2018-01-01T06:30:09.406Z,49.05
2018-01-01T06:32:35.240Z,49.05
2018-01-01T06:35:01.123Z,48.50
2018-01-01T06:37:26.941Z,48.78
2018-01-01T06:39:53.155Z,48.75
2018-01-01T06:42:19.433Z,48.69
2018-01-01T06:44:45.475Z,49.22
2018-01-01T06:47:11.950Z,48.96
2018-01-01T06:49:37.778Z,48.80
2018-01-01T06:52:04.216Z,48.90
2018-01-01T06:54:30.619Z,48.97
2018-01-01T06:56:56.549Z,48.60
2018-01-01T06:59:22.908Z,48.90
2018-01-01T07:01:48.782Z,48.82
2018-01-01T07:04:16.812Z,48.95
2018-01-01T07:06:42.682Z,48.92
2018-01-01T07:09:08.581Z,49.06
2018-01-01T07:11:34.824Z,48.37
2018-01-01T07:14:01.234Z,48.78
2018-01-01T07:16:27.461Z,48.23
2018-01-01T07:18:53.469Z,48.97
2018-01-01T07:21:19.310Z,48.26
2018-01-01T07:23:45.258Z,48.91
2018-01-01T07:26:11.343Z,49.01
2018-01-01T07:28:37.170Z,48.49
2018-01-01T07:31:02.999Z,48.39
2018-01-01T07:33:28.958Z,48.78
2018-01-01T07:35:54.887Z,47.99
2018-01-01T07:38:20.703Z,47.98
2018-01-01T07:40:46.911Z,48.28
2018-01-01T07:43:12.742Z,48.67
2018-01-01T07:45:38.572Z,48.60
2018-01-01T07:48:04.405Z,48.29
2018-01-01T07:50:30.247Z,48.76
2018-01-01T07:52:56.068Z,49.06
2018-01-01T07:55:21.938Z,48.84
2018-01-01T07:57:47.798Z,48.22
2018-01-01T08:00:13.630Z,48.10
2018-01-01T08:02:39.489Z,48.29
2018-01-01T08:05:05.355Z,47.99
2018-01-01T08:07:31.230Z,48.27
2018-01-01T08:09:57.063Z,48.27
2018-01-01T08:12:22.870Z,47.52
2018-01-01T08:14:48.689Z,47.95
2018-01-01T08:17:14.577Z,48.28
2018-01-01T08:19:40.403Z,48.44
2018-01-01T08:22:06.270Z,48.27
2018-01-01T08:24:32.090Z,48.26
2018-01-01T08:26:57.907Z,48.14
2018-01-01T08:29:23.755Z,48.41
2018-01-01T08:31:49.571Z,47.60
2018-01-01T08:34:15.381Z,48.13
2018-01-01T08:36:41.202Z,48.19
2018-01-01T08:39:07.039Z,48.08
2018-01-01T08:41:33.317Z,48.03
2018-01-01T08:43:59.577Z,48.02
2018-01-01T08:46:27.556Z,48.14
2018-01-01T08:48:53.428Z,48.15
2018-01-01T08:51:19.239Z,48.08
2018-01-01T08:53:45.183Z,48.03
2018-01-01T08:56:11.117Z,46.62
2018-01-01T08:58:36.950Z,48.41
2018-01-01T09:01:02.942Z,47.86
2018-01-01T09:03:29.023Z,47.03
2018-01-01T09:05:55.202Z,47.04
2018-01-01T09:08:21.127Z,47.63
2018-01-01T09:10:47.049Z,46.92
2018-01-01T09:13:12.857Z,47.20
2018-01-01T09:15:38.897Z,46.51
2018-01-01T09:18:04.950Z,46.88
2018-01-01T09:20:31.031Z,47.65
2018-01-01T09:22:57.862Z,46.31
2018-01-01T09:25:24.169Z,45.87
2018-01-01T09:27:50.415Z,47.09
2018-01-01T09:30:16.245Z,47.33
2018-01-01T09:32:42.058Z,47.14
2018-01-01T09:35:07.966Z,45.98
2018-01-01T09:37:33.851Z,47.15
2018-01-01T09:39:59.662Z,46.57
2018-01-01T09:42:26.007Z,46.83
2018-01-01T09:44:51.829Z,46.83
2018-01-01T09:47:17.665Z,47.06
2018-01-01T09:49:43.473Z,47.04
2018-01-01T09:52:16.357Z,47.08
2018-01-01T09:54:42.174Z,47.48
2018-01-01T09:57:07.983Z,47.08
2018-01-01T09:59:33.814Z,47.17
2018-01-01T10:01:59.887Z,47.33
2018-01-01T10:04:25.908Z,47.22
2018-01-01T10:06:51.754Z,47.13
2018-01-01T10:09:17.676Z,47.48
2018-01-01T10:11:43.523Z,46.95
2018-01-01T10:14:09.354Z,47.60
2018-01-01T10:16:35.217Z,47.00
2018-01-01T10:19:01.046Z,47.09
2018-01-01T10:21:26.990Z,46.85
2018-01-01T10:23:53.029Z,47.18
2018-01-01T10:26:19.202Z,46.57
2018-01-01T10:28:45.052Z,46.38
2018-01-01T10:31:10.910Z,46.70
2018-01-01T10:33:36.733Z,47.25
2018-01-01T10:36:02.643Z,46.65
2018-01-01T10:38:28.488Z,46.73
2018-01-01T10:40:54.350Z,45.76
2018-01-01T10:43:20.639Z,45.45
2018-01-01T10:45:46.870Z,45.25
2018-01-01T10:48:13.284Z,45.33
2018-01-01T10:50:39.192Z,47.37
2018-01-01T10:53:05.014Z,46.37
2018-01-01T10:55:30.829Z,45.72
2018-01-01T10:57:56.641Z,45.28
2018-01-01T11:00:22.455Z,47.11
2018-01-01T11:02:48.269Z,46.69
2018-01-01T11:05:14.211Z,46.68
2018-01-01T11:07:40.034Z,47.09
2018-01-01T11:10:05.856Z,46.80
2018-01-01T11:12:31.674Z,47.11
2018-01-01T11:14:57.538Z,46.67
2018-01-01T11:17:23.430Z,46.68
2018-01-01T11:19:49.287Z,46.73
2018-01-01T11:22:15.274Z,45.58
2018-01-01T11:24:41.356Z,46.81
2018-01-01T11:27:07.215Z,46.77
2018-01-01T11:29:33.031Z,45.66
2018-01-01T11:31:58.847Z,46.40
2018-01-01T11:34:24.669Z,46.65
2018-01-01T11:36:50.482Z,46.20
2018-01-01T11:39:16.302Z,45.90
2018-01-01T11:41:42.114Z,44.86
2018-01-01T11:44:07.931Z,46.78
2018-01-01T11:46:33.750Z,46.23
2018-01-01T11:48:59.566Z,46.37
2018-01-01T11:51:25.486Z,46.81
2018-01-01T11:53:51.297Z,45.31
2018-01-01T11:56:17.110Z,45.04
2018-01-01T11:58:42.938Z,45.32
2018-01-01T12:01:08.766Z,44.63
2018-01-01T12:03:34.635Z,45.61
2018-01-01T12:06:00.497Z,45.55
2018-01-01T12:08:26.330Z,45.06
2018-01-01T12:10:52.142Z,46.27
2018-01-01T12:13:17.958Z,44.67
2018-01-01T12:15:43.771Z,44.71
2018-01-01T12:18:09.770Z,45.39
2018-01-01T12:20:35.579Z,44.67
2018-01-01T12:23:01.443Z,43.92
2018-01-01T12:25:27.268Z,44.58
2018-01-01T12:27:53.079Z,46.43
2018-01-01T12:30:18.889Z,44.79
2018-01-01T12:32:44.743Z,44.54
2018-01-01T12:35:10.614Z,45.54
2018-01-01T12:37:36.430Z,44.53
2018-01-01T12:40:02.286Z,44.71
2018-01-01T12:42:28.108Z,44.41
2018-01-01T12:44:53.981Z,44.31
2018-01-01T12:47:19.838Z,45.79
2018-01-01T12:49:45.666Z,44.57
2018-01-01T12:52:11.643Z,44.14
2018-01-01T12:54:37.449Z,44.28
2018-01-01T12:57:03.262Z,44.33
2018-01-01T12:59:29.086Z,44.93
2018-01-01T13:01:54.934Z,45.06
2018-01-01T13:04:20.754Z,46.01
2018-01-01T13:06:46.608Z,46.15
2018-01-01T13:09:12.468Z,45.22
2018-01-01T13:11:38.371Z,46.37
2018-01-01T13:14:04.989Z,45.89
2018-01-01T13:16:30.814Z,46.39
2018-01-01T13:18:56.728Z,46.57
2018-01-01T13:21:22.597Z,46.06
2018-01-01T13:23:48.596Z,46.79
2018-01-01T13:26:14.522Z,46.55
2018-01-01T13:28:40.443Z,46.18
2018-01-01T13:31:06.382Z,46.80
2018-01-01T13:33:32.252Z,47.27
2018-01-01T13:35:58.118Z,46.78
2018-01-01T13:38:23.983Z,45.43
2018-01-01T13:40:49.805Z,45.99
2018-01-01T13:43:15.609Z,44.92
2018-01-01T13:45:41.437Z,45.82
2018-01-01T13:48:07.259Z,45.05
2018-01-01T13:50:33.310Z,44.77
2018-01-01T13:52:59.253Z,45.52
2018-01-01T13:55:25.074Z,45.21
2018-01-01T13:57:50.882Z,46.20
2018-01-01T14:00:16.926Z,44.70
2018-01-01T14:02:42.871Z,44.27
2018-01-01T14:05:08.695Z,44.33
2018-01-01T14:07:34.546Z,45.17
2018-01-01T14:10:00.470Z,46.04
2018-01-01T14:12:26.287Z,45.63
2018-01-01T14:14:52.101Z,46.37
2018-01-01T14:17:17.908Z,45.13
2018-01-01T14:19:43.722Z,44.79
2018-01-01T14:22:09.594Z,44.98
2018-01-01T14:24:35.411Z,46.11
2018-01-01T14:27:01.229Z,44.92
2018-01-01T14:29:27.534Z,46.23
2018-01-01T14:31:53.757Z,46.21
2018-01-01T14:34:19.606Z,46.20
2018-01-01T14:36:45.538Z,46.32
2018-01-01T14:39:11.350Z,46.19
2018-01-01T14:41:37.322Z,46.47
2018-01-01T14:44:03.197Z,44.99
2018-01-01T14:46:29.017Z,46.10
2018-01-01T14:48:55.100Z,46.08
2018-01-01T14:51:21.194Z,46.17
2018-01-01T14:53:47.030Z,45.97
2018-01-01T14:56:12.852Z,45.73
2018-01-01T14:58:38.681Z,45.14
2018-01-01T15:01:04.494Z,45.57
2018-01-01T15:03:30.306Z,45.25
2018-01-01T15:05:56.297Z,44.46
2018-01-01T15:08:22.110Z,44.91
2018-01-01T15:10:47.930Z,44.70
2018-01-01T15:13:13.862Z,45.87
2018-01-01T15:15:39.718Z,44.83
2018-01-01T15:18:05.533Z,44.60
2018-01-01T15:20:31.354Z,44.63
2018-01-01T15:22:57.413Z,44.15
2018-01-01T15:25:23.260Z,44.03
2018-01-01T15:27:49.442Z,44.07
2018-01-01T15:30:15.261Z,44.00
2018-01-01T15:32:41.124Z,43.92
2018-01-01T15:35:06.973Z,44.38
2018-01-01T15:37:32.790Z,44.26
2018-01-01T15:39:58.623Z,44.16
2018-01-01T15:42:24.465Z,42.82
2018-01-01T15:44:50.353Z,43.93
2018-01-01T15:47:16.300Z,45.19
2018-01-01T15:49:42.126Z,44.39
2018-01-01T15:52:08.102Z,45.08
2018-01-01T15:54:33.938Z,45.84
2018-01-01T15:56:59.973Z,44.44
2018-01-01T15:59:25.810Z,44.42
2018-01-01T16:01:51.635Z,44.73
2018-01-01T16:04:17.438Z,44.82
2018-01-01T16:06:43.438Z,44.92
2018-01-01T16:09:09.324Z,44.41
2018-01-01T16:11:35.146Z,45.34
2018-01-01T16:14:01.090Z,45.08
2018-01-01T16:16:26.903Z,45.02
2018-01-01T16:18:52.814Z,44.82
2018-01-01T16:21:19.150Z,44.70
2018-01-01T16:23:45.492Z,44.26
2018-01-01T16:26:12.230Z,44.12
2018-01-01T16:28:40.309Z,43.85
2018-01-01T16:31:06.202Z,43.99
2018-01-01T16:33:32.093Z,44.28
2018-01-01T16:35:57.965Z,43.94
2018-01-01T16:38:23.821Z,44.02
2018-01-01T16:40:49.656Z,44.16
2018-01-01T16:43:15.474Z,44.12
2018-01-01T16:45:41.282Z,43.82
2018-01-01T16:48:07.230Z,43.86
2018-01-01T16:50:33.058Z,43.80
2018-01-01T16:52:59.134Z,43.80
2018-01-01T16:55:25.008Z,43.95
2018-01-01T16:57:50.981Z,43.84
2018-01-01T17:00:16.793Z,44.09
2018-01-01T17:02:42.738Z,44.06
2018-01-01T17:05:08.585Z,43.29
2018-01-01T17:07:34.466Z,43.21
2018-01-01T17:10:00.278Z,43.83
2018-01-01T17:12:26.093Z,43.54
2018-01-01T17:14:51.906Z,43.95
2018-01-01T17:17:17.876Z,43.76
2018-01-01T17:19:43.714Z,43.28
2018-01-01T17:22:09.522Z,43.39
2018-01-01T17:24:35.396Z,44.02
2018-01-01T17:27:01.205Z,44.72
2018-01-01T17:29:27.079Z,45.15
2018-01-01T17:31:53.094Z,44.75
2018-01-01T17:34:19.134Z,44.44
2018-01-01T17:36:44.966Z,44.37
2018-01-01T17:39:10.798Z,43.43
2018-01-01T17:41:36.638Z,43.77
2018-01-01T17:44:02.470Z,43.52
2018-01-01T17:46:28.438Z,43.62
2018-01-01T17:48:54.274Z,43.44
2018-01-01T17:51:20.260Z,43.14
2018-01-01T17:53:46.256Z,43.58
2018-01-01T17:56:12.321Z,43.55
2018-01-01T17:58:38.149Z,43.83
2018-01-01T18:01:03.981Z,43.51
2018-01-01T18:03:29.802Z,43.77
2018-01-01T18:05:55.627Z,44.14
2018-01-01T18:08:21.536Z,43.40
2018-01-01T18:10:47.514Z,43.54
2018-01-01T18:13:13.358Z,43.25
2018-01-01T18:15:39.171Z,43.10
2018-01-01T18:18:04.991Z,42.50
2018-01-01T18:20:30.810Z,43.21
2018-01-01T18:22:56.622Z,43.16
2018-01-01T18:25:22.458Z,42.80
2018-01-01T18:27:48.298Z,42.69
2018-01-01T18:30:14.127Z,42.76
2018-01-01T18:32:39.954Z,42.53
2018-01-01T18:35:05.762Z,43.18
2018-01-01T18:37:31.570Z,43.44
2018-01-01T18:39:57.386Z,42.69
2018-01-01T18:42:23.198Z,43.36
2018-01-01T18:44:49.014Z,42.98
2018-01-01T18:47:14.826Z,42.64
2018-01-01T18:49:40.634Z,43.04
2018-01-01T18:52:06.706Z,42.51
2018-01-01T18:54:32.731Z,42.54
2018-01-01T18:56:58.582Z,42.85
2018-01-01T18:59:24.399Z,42.43
2018-01-01T19:01:50.254Z,42.62
2018-01-01T19:04:16.066Z,43.13
2018-01-01T19:06:41.958Z,42.53
2018-01-01T19:09:07.962Z,42.56
2018-01-01T19:11:39.228Z,42.46
2018-01-01T19:14:08.846Z,42.96
2018-01-01T19:16:36.265Z,42.66
2018-01-01T19:19:03.749Z,43.09
2018-01-01T19:21:29.562Z,42.81
2018-01-01T19:23:55.589Z,42.46
2018-01-01T19:26:21.398Z,42.79
2018-01-01T19:28:47.217Z,42.96
2018-01-01T19:31:13.290Z,43.28
2018-01-01T19:33:39.179Z,43.35
2018-01-01T19:36:05.038Z,43.21
2018-01-01T19:38:31.051Z,42.37
2018-01-01T19:40:57.006Z,42.87
2018-01-01T19:43:23.430Z,42.99
2018-01-01T19:45:49.362Z,42.96
2018-01-01T19:48:15.334Z,42.61
2018-01-01T19:50:41.310Z,43.32
2018-01-01T19:53:07.221Z,42.29
2018-01-01T19:55:33.029Z,42.11
2018-01-01T19:57:58.978Z,42.43
2018-01-01T20:00:24.790Z,42.79
2018-01-01T20:02:50.694Z,42.26
2018-01-01T20:05:17.633Z,42.08
2018-01-01T20:07:43.738Z,41.80
2018-01-01T20:10:09.843Z,41.71
2018-01-01T20:12:35.782Z,41.48
2018-01-01T20:15:01.650Z,41.45
2018-01-01T20:17:27.610Z,41.58
2018-01-01T20:19:54.406Z,42.09
2018-01-01T20:22:20.262Z,42.13
2018-01-01T20:24:46.921Z,41.98
2018-01-01T20:27:12.859Z,42.23
2018-01-01T20:29:38.822Z,41.81
2018-01-01T20:32:05.926Z,41.57
2018-01-01T20:34:31.729Z,41.83
2018-01-01T20:36:57.822Z,41.89
2018-01-01T20:39:23.698Z,42.32
2018-01-01T20:41:49.544Z,42.06
2018-01-01T20:44:15.418Z,42.20
2018-01-01T20:46:41.254Z,42.08
2018-01-01T20:49:07.062Z,41.89
2018-01-01T20:51:33.260Z,41.99
2018-01-01T20:53:59.082Z,42.27
2018-01-01T20:56:24.980Z,42.46
2018-01-01T20:58:51.715Z,42.09
2018-01-01T21:01:17.517Z,42.05
2018-01-01T21:03:43.326Z,42.10
2018-01-01T21:06:09.476Z,42.20
2018-01-01T21:08:35.297Z,41.83
2018-01-01T21:11:01.122Z,41.94
2018-01-01T21:13:27.229Z,42.05
2018-01-01T21:15:53.141Z,41.79
2018-01-01T21:18:18.879Z,41.75
2018-01-01T21:20:45.778Z,41.51
2018-01-01T21:23:11.652Z,41.54
2018-01-01T21:25:37.458Z,41.35
2018-01-01T21:28:03.542Z,41.75
2018-01-01T21:30:29.354Z,41.25
2018-01-01T21:32:55.165Z,41.38
2018-01-01T21:35:21.366Z,41.41
2018-01-01T21:37:47.929Z,41.25
2018-01-01T21:40:13.890Z,41.30
2018-01-01T21:42:42.278Z,41.43
2018-01-01T21:45:10.186Z,41.43
2018-01-01T21:47:36.039Z,41.55
2018-01-01T21:50:01.854Z,41.37
2018-01-01T21:52:27.855Z,41.68
2018-01-01T21:54:53.661Z,41.54
2018-01-01T21:57:19.478Z,41.46
2018-01-01T21:59:45.318Z,41.32
2018-01-01T22:02:11.166Z,41.35
2018-01-01T22:04:37.026Z,41.47
2018-01-01T22:07:02.882Z,41.38
2018-01-01T22:09:28.780Z,41.34
2018-01-01T22:11:54.638Z,41.52
2018-01-01T22:14:20.486Z,41.28
2018-01-01T22:16:46.298Z,41.24
2018-01-01T22:19:12.149Z,41.09
2018-01-01T22:21:38.094Z,41.09
2018-01-01T22:24:03.961Z,41.01
2018-01-01T22:26:29.774Z,41.07
2018-01-01T22:28:55.617Z,41.25
2018-01-01T22:31:21.465Z,41.36
2018-01-01T22:33:47.273Z,41.38
2018-01-01T22:36:13.122Z,41.30
2018-01-01T22:38:39.346Z,41.33
2018-01-01T22:41:05.190Z,41.33
2018-01-01T22:43:31.002Z,41.33
2018-01-01T22:45:56.854Z,41.58
2018-01-01T22:48:22.705Z,41.35
2018-01-01T22:50:48.517Z,41.06
2018-01-01T22:53:14.334Z,41.18
2018-01-01T22:55:40.149Z,41.15
2018-01-01T22:58:05.962Z,41.21
2018-01-01T23:00:31.781Z,41.62
2018-01-01T23:02:57.642Z,41.48
2018-01-01T23:05:23.638Z,41.33
2018-01-01T23:07:49.447Z,41.30
2018-01-01T23:10:15.262Z,41.02
2018-01-01T23:12:41.229Z,41.22
2018-01-01T23:15:07.086Z,40.91
2018-01-01T23:17:32.943Z,40.99
2018-01-01T23:19:58.760Z,40.73
2018-01-01T23:22:24.606Z,40.69
2018-01-01T23:24:50.419Z,40.62
2018-01-01T23:27:16.229Z,40.60
2018-01-01T23:29:42.074Z,40.61
2018-01-01T23:32:07.893Z,40.17
2018-01-01T23:34:33.699Z,40.19
2018-01-01T23:36:59.501Z,40.38
2018-01-01T23:39:25.337Z,40.27
2018-01-01T23:41:51.323Z,40.14
2018-01-01T23:44:17.388Z,40.56
2018-01-01T23:46:43.330Z,40.29
2018-01-01T23:49:09.150Z,39.96
2018-01-01T23:51:34.957Z,39.97
2018-01-01T23:54:00.814Z,40.07
2018-01-01T23:56:26.630Z,40.00
2018-01-01T23:58:52.551Z,40.07
